Cullar-Vega, Spain
Current Conditions -  °F | °C
As of 8:30 AM on Sunday 23 Nov 2014 (Local Time) from LEGR Reporting Station
Few Clouds Few Clouds  
Wind Chill: 15°   Ceiling: Unl
Heat Index: 15°   Visibility: 6mi
Dew Point:   Wind: 3mph
Humidity: 67%   Direction: 40°NE
Pressure: 29.85"   Gusts: NA
Location:  37.15°N, 3.67°W
Report Text: LEGR 230730Z 04003KT 350V120 9000 FEW090 15/09 Q1011
Loading
Personal Weather Stations






























Interactive Weather Map New forecast layout! Learn more

10-Day Weather Forecast

Advertisements
Track Severe Weather on mobile